sensor_id;sensor_type;location;lat;lon;timestamp;P1;durP1;ratioP1;P2;durP2;ratioP2
37201;SDS011;37799;52.390;6.136;2022-07-09T00:00:43;4.00;;;0.95;;
37201;SDS011;37799;52.390;6.136;2022-07-09T00:03:09;3.15;;;0.68;;
37201;SDS011;37799;52.390;6.136;2022-07-09T00:05:34;4.00;;;0.93;;
37201;SDS011;37799;52.390;6.136;2022-07-09T00:08:00;5.32;;;0.75;;
37201;SDS011;37799;52.390;6.136;2022-07-09T00:10:25;3.65;;;0.85;;
37201;SDS011;37799;52.390;6.136;2022-07-09T00:12:50;3.95;;;0.85;;
37201;SDS011;37799;52.390;6.136;2022-07-09T00:15:16;2.85;;;0.80;;
37201;SDS011;37799;52.390;6.136;2022-07-09T00:17:41;3.45;;;0.70;;
37201;SDS011;37799;52.390;6.136;2022-07-09T00:20:07;3.83;;;1.10;;
37201;SDS011;37799;52.390;6.136;2022-07-09T00:22:33;3.78;;;0.98;;
37201;SDS011;37799;52.390;6.136;2022-07-09T00:24:58;3.38;;;0.80;;
37201;SDS011;37799;52.390;6.136;2022-07-09T00:27:25;2.67;;;0.57;;
37201;SDS011;37799;52.390;6.136;2022-07-09T00:29:50;3.35;;;0.80;;
37201;SDS011;37799;52.390;6.136;2022-07-09T00:32:15;4.53;;;1.25;;
37201;SDS011;37799;52.390;6.136;2022-07-09T00:34:41;3.85;;;0.77;;
37201;SDS011;37799;52.390;6.136;2022-07-09T00:37:07;4.55;;;1.15;;
37201;SDS011;37799;52.390;6.136;2022-07-09T00:39:32;6.75;;;1.00;;
37201;SDS011;37799;52.390;6.136;2022-07-09T00:42:01;2.97;;;0.80;;
37201;SDS011;37799;52.390;6.136;2022-07-09T00:44:28;4.43;;;0.60;;
37201;SDS011;37799;52.390;6.136;2022-07-09T00:46:53;5.03;;;1.10;;
37201;SDS011;37799;52.390;6.136;2022-07-09T00:49:18;4.82;;;0.85;;
37201;SDS011;37799;52.390;6.136;2022-07-09T00:51:44;3.13;;;0.73;;
37201;SDS011;37799;52.390;6.136;2022-07-09T00:54:10;3.50;;;0.82;;
37201;SDS011;37799;52.390;6.136;2022-07-09T00:56:35;2.55;;;0.55;;
37201;SDS011;37799;52.390;6.136;2022-07-09T00:59:01;3.58;;;0.88;;
37201;SDS011;37799;52.390;6.136;2022-07-09T01:01:29;2.25;;;0.50;;
37201;SDS011;37799;52.390;6.136;2022-07-09T01:03:54;2.72;;;0.80;;
37201;SDS011;37799;52.390;6.136;2022-07-09T01:06:20;4.30;;;0.90;;
37201;SDS011;37799;52.390;6.136;2022-07-09T01:08:45;3.25;;;0.70;;
37201;SDS011;37799;52.390;6.136;2022-07-09T01:11:10;4.70;;;1.10;;
37201;SDS011;37799;52.390;6.136;2022-07-09T01:13:35;3.55;;;0.68;;
37201;SDS011;37799;52.390;6.136;2022-07-09T01:16:01;3.72;;;1.00;;
37201;SDS011;37799;52.390;6.136;2022-07-09T01:18:26;3.92;;;0.95;;
37201;SDS011;37799;52.390;6.136;2022-07-09T01:20:51;5.13;;;0.98;;
37201;SDS011;37799;52.390;6.136;2022-07-09T01:23:17;3.28;;;0.70;;
37201;SDS011;37799;52.390;6.136;2022-07-09T01:25:43;4.35;;;0.90;;
37201;SDS011;37799;52.390;6.136;2022-07-09T01:28:08;3.25;;;0.57;;
37201;SDS011;37799;52.390;6.136;2022-07-09T01:30:35;2.78;;;0.80;;
37201;SDS011;37799;52.390;6.136;2022-07-09T01:33:02;4.25;;;0.93;;
37201;SDS011;37799;52.390;6.136;2022-07-09T01:35:28;4.68;;;1.02;;
37201;SDS011;37799;52.390;6.136;2022-07-09T01:37:54;5.25;;;0.90;;
37201;SDS011;37799;52.390;6.136;2022-07-09T01:40:19;4.43;;;0.65;;
37201;SDS011;37799;52.390;6.136;2022-07-09T01:42:45;3.92;;;0.93;;
37201;SDS011;37799;52.390;6.136;2022-07-09T01:45:11;6.22;;;0.70;;
37201;SDS011;37799;52.390;6.136;2022-07-09T01:47:36;4.13;;;0.65;;
37201;SDS011;37799;52.390;6.136;2022-07-09T01:50:02;3.17;;;0.63;;
37201;SDS011;37799;52.390;6.136;2022-07-09T01:52:28;3.75;;;0.93;;
37201;SDS011;37799;52.390;6.136;2022-07-09T01:54:54;3.15;;;0.90;;
37201;SDS011;37799;52.390;6.136;2022-07-09T01:57:19;6.78;;;0.82;;
37201;SDS011;37799;52.390;6.136;2022-07-09T01:59:44;2.78;;;0.38;;
37201;SDS011;37799;52.390;6.136;2022-07-09T02:02:10;2.60;;;0.70;;
37201;SDS011;37799;52.390;6.136;2022-07-09T02:04:35;4.00;;;0.93;;
37201;SDS011;37799;52.390;6.136;2022-07-09T02:07:01;3.65;;;0.80;;
37201;SDS011;37799;52.390;6.136;2022-07-09T02:09:26;4.13;;;0.98;;
37201;SDS011;37799;52.390;6.136;2022-07-09T02:11:51;3.78;;;0.95;;
37201;SDS011;37799;52.390;6.136;2022-07-09T02:14:17;4.00;;;1.00;;
37201;SDS011;37799;52.390;6.136;2022-07-09T02:16:42;3.80;;;1.00;;
37201;SDS011;37799;52.390;6.136;2022-07-09T02:19:08;3.20;;;0.77;;
37201;SDS011;37799;52.390;6.136;2022-07-09T02:21:34;3.20;;;0.90;;
37201;SDS011;37799;52.390;6.136;2022-07-09T02:23:59;7.05;;;0.90;;
37201;SDS011;37799;52.390;6.136;2022-07-09T02:26:25;4.70;;;0.95;;
37201;SDS011;37799;52.390;6.136;2022-07-09T02:28:52;3.50;;;0.93;;
37201;SDS011;37799;52.390;6.136;2022-07-09T02:31:18;4.88;;;0.90;;
37201;SDS011;37799;52.390;6.136;2022-07-09T02:33:43;3.50;;;0.80;;
37201;SDS011;37799;52.390;6.136;2022-07-09T02:36:08;4.18;;;0.77;;
37201;SDS011;37799;52.390;6.136;2022-07-09T02:38:34;3.03;;;0.77;;
37201;SDS011;37799;52.390;6.136;2022-07-09T02:40:59;4.60;;;0.85;;
37201;SDS011;37799;52.390;6.136;2022-07-09T02:43:26;4.68;;;0.90;;
37201;SDS011;37799;52.390;6.136;2022-07-09T02:45:51;5.78;;;1.40;;
37201;SDS011;37799;52.390;6.136;2022-07-09T02:48:20;3.88;;;0.73;;
37201;SDS011;37799;52.390;6.136;2022-07-09T02:50:45;5.35;;;1.08;;
37201;SDS011;37799;52.390;6.136;2022-07-09T02:53:11;3.70;;;1.00;;
37201;SDS011;37799;52.390;6.136;2022-07-09T02:55:36;5.23;;;1.73;;
37201;SDS011;37799;52.390;6.136;2022-07-09T02:58:01;3.38;;;1.00;;
37201;SDS011;37799;52.390;6.136;2022-07-09T03:00:26;6.00;;;1.25;;
37201;SDS011;37799;52.390;6.136;2022-07-09T03:02:52;5.03;;;1.10;;
37201;SDS011;37799;52.390;6.136;2022-07-09T03:05:17;4.78;;;1.35;;
37201;SDS011;37799;52.390;6.136;2022-07-09T03:07:42;4.30;;;1.15;;
37201;SDS011;37799;52.390;6.136;2022-07-09T03:10:08;4.17;;;1.17;;
37201;SDS011;37799;52.390;6.136;2022-07-09T03:12:33;10.23;;;1.80;;
37201;SDS011;37799;52.390;6.136;2022-07-09T03:14:58;5.30;;;1.50;;
37201;SDS011;37799;52.390;6.136;2022-07-09T03:17:24;6.85;;;1.92;;
37201;SDS011;37799;52.390;6.136;2022-07-09T03:19:51;5.80;;;2.00;;
37201;SDS011;37799;52.390;6.136;2022-07-09T03:22:16;8.70;;;2.13;;
37201;SDS011;37799;52.390;6.136;2022-07-09T03:24:42;6.32;;;2.13;;
37201;SDS011;37799;52.390;6.136;2022-07-09T03:27:07;5.15;;;1.88;;
37201;SDS011;37799;52.390;6.136;2022-07-09T03:29:33;7.70;;;2.10;;
37201;SDS011;37799;52.390;6.136;2022-07-09T03:31:58;7.63;;;2.10;;
37201;SDS011;37799;52.390;6.136;2022-07-09T03:34:23;5.57;;;1.97;;
37201;SDS011;37799;52.390;6.136;2022-07-09T03:36:48;6.75;;;1.90;;
37201;SDS011;37799;52.390;6.136;2022-07-09T03:39:14;7.25;;;1.92;;
37201;SDS011;37799;52.390;6.136;2022-07-09T03:41:39;8.27;;;2.42;;
37201;SDS011;37799;52.390;6.136;2022-07-09T03:44:05;8.02;;;2.10;;
37201;SDS011;37799;52.390;6.136;2022-07-09T03:46:30;6.77;;;2.00;;
37201;SDS011;37799;52.390;6.136;2022-07-09T03:48:56;9.13;;;1.95;;
37201;SDS011;37799;52.390;6.136;2022-07-09T03:51:21;6.60;;;2.05;;
37201;SDS011;37799;52.390;6.136;2022-07-09T03:53:47;5.78;;;1.70;;
37201;SDS011;37799;52.390;6.136;2022-07-09T03:56:12;6.88;;;1.85;;
37201;SDS011;37799;52.390;6.136;2022-07-09T03:58:37;6.53;;;2.03;;
37201;SDS011;37799;52.390;6.136;2022-07-09T04:01:03;6.82;;;2.25;;
37201;SDS011;37799;52.390;6.136;2022-07-09T04:03:28;7.55;;;2.08;;
37201;SDS011;37799;52.390;6.136;2022-07-09T04:05:53;6.15;;;1.65;;
37201;SDS011;37799;52.390;6.136;2022-07-09T04:08:19;6.77;;;2.20;;
37201;SDS011;37799;52.390;6.136;2022-07-09T04:10:44;5.47;;;1.92;;
37201;SDS011;37799;52.390;6.136;2022-07-09T04:13:09;6.07;;;1.77;;
37201;SDS011;37799;52.390;6.136;2022-07-09T04:15:35;6.95;;;2.25;;
37201;SDS011;37799;52.390;6.136;2022-07-09T04:18:00;10.73;;;1.95;;
37201;SDS011;37799;52.390;6.136;2022-07-09T04:20:25;7.25;;;1.77;;
37201;SDS011;37799;52.390;6.136;2022-07-09T04:22:51;5.73;;;1.60;;
37201;SDS011;37799;52.390;6.136;2022-07-09T04:25:17;6.80;;;1.58;;
37201;SDS011;37799;52.390;6.136;2022-07-09T04:27:42;8.00;;;2.28;;
37201;SDS011;37799;52.390;6.136;2022-07-09T04:30:09;6.32;;;2.00;;
37201;SDS011;37799;52.390;6.136;2022-07-09T04:32:35;7.03;;;1.40;;
37201;SDS011;37799;52.390;6.136;2022-07-09T04:35:02;6.88;;;1.50;;
37201;SDS011;37799;52.390;6.136;2022-07-09T04:37:27;6.93;;;1.63;;
37201;SDS011;37799;52.390;6.136;2022-07-09T04:39:53;6.35;;;1.80;;
37201;SDS011;37799;52.390;6.136;2022-07-09T04:42:18;5.80;;;1.92;;
37201;SDS011;37799;52.390;6.136;2022-07-09T04:44:45;8.27;;;2.88;;
37201;SDS011;37799;52.390;6.136;2022-07-09T04:47:10;5.60;;;1.90;;
37201;SDS011;37799;52.390;6.136;2022-07-09T04:49:37;5.70;;;1.77;;
37201;SDS011;37799;52.390;6.136;2022-07-09T04:52:02;6.72;;;1.83;;
37201;SDS011;37799;52.390;6.136;2022-07-09T04:54:28;7.38;;;2.72;;
37201;SDS011;37799;52.390;6.136;2022-07-09T04:56:53;6.68;;;1.77;;
37201;SDS011;37799;52.390;6.136;2022-07-09T04:59:18;7.53;;;1.80;;
37201;SDS011;37799;52.390;6.136;2022-07-09T05:01:44;5.80;;;2.13;;
37201;SDS011;37799;52.390;6.136;2022-07-09T05:04:09;5.82;;;1.80;;
37201;SDS011;37799;52.390;6.136;2022-07-09T05:06:34;6.65;;;1.88;;
37201;SDS011;37799;52.390;6.136;2022-07-09T05:08:59;6.85;;;2.25;;
37201;SDS011;37799;52.390;6.136;2022-07-09T05:11:25;5.47;;;1.58;;
37201;SDS011;37799;52.390;6.136;2022-07-09T05:13:50;6.93;;;1.63;;
37201;SDS011;37799;52.390;6.136;2022-07-09T05:16:16;6.05;;;1.60;;
37201;SDS011;37799;52.390;6.136;2022-07-09T05:18:41;6.85;;;2.10;;
37201;SDS011;37799;52.390;6.136;2022-07-09T05:21:07;6.35;;;1.90;;
37201;SDS011;37799;52.390;6.136;2022-07-09T05:23:32;7.28;;;2.15;;
37201;SDS011;37799;52.390;6.136;2022-07-09T05:25:58;5.88;;;1.70;;
37201;SDS011;37799;52.390;6.136;2022-07-09T05:28:23;6.85;;;2.00;;
37201;SDS011;37799;52.390;6.136;2022-07-09T05:30:48;9.27;;;2.45;;
37201;SDS011;37799;52.390;6.136;2022-07-09T05:33:14;7.00;;;2.20;;
37201;SDS011;37799;52.390;6.136;2022-07-09T05:35:39;6.82;;;1.73;;
37201;SDS011;37799;52.390;6.136;2022-07-09T05:38:05;5.10;;;1.60;;
37201;SDS011;37799;52.390;6.136;2022-07-09T05:40:30;6.07;;;1.80;;
37201;SDS011;37799;52.390;6.136;2022-07-09T05:42:55;5.40;;;1.80;;
37201;SDS011;37799;52.390;6.136;2022-07-09T05:45:21;5.95;;;1.70;;
37201;SDS011;37799;52.390;6.136;2022-07-09T05:47:46;8.77;;;1.98;;
37201;SDS011;37799;52.390;6.136;2022-07-09T05:50:11;5.80;;;1.83;;
37201;SDS011;37799;52.390;6.136;2022-07-09T05:52:37;3.97;;;1.08;;
37201;SDS011;37799;52.390;6.136;2022-07-09T05:55:02;5.85;;;1.52;;
37201;SDS011;37799;52.390;6.136;2022-07-09T05:57:31;5.10;;;1.45;;
37201;SDS011;37799;52.390;6.136;2022-07-09T05:59:57;6.55;;;1.50;;
37201;SDS011;37799;52.390;6.136;2022-07-09T06:02:22;5.32;;;1.55;;
37201;SDS011;37799;52.390;6.136;2022-07-09T06:04:48;3.72;;;1.08;;
37201;SDS011;37799;52.390;6.136;2022-07-09T06:07:14;4.93;;;1.33;;
37201;SDS011;37799;52.390;6.136;2022-07-09T06:09:39;4.30;;;0.93;;
37201;SDS011;37799;52.390;6.136;2022-07-09T06:12:04;4.00;;;1.02;;
37201;SDS011;37799;52.390;6.136;2022-07-09T06:14:30;5.65;;;1.77;;
37201;SDS011;37799;52.390;6.136;2022-07-09T06:16:55;4.75;;;1.20;;
37201;SDS011;37799;52.390;6.136;2022-07-09T06:19:21;5.00;;;1.17;;
37201;SDS011;37799;52.390;6.136;2022-07-09T06:21:46;4.65;;;1.10;;
37201;SDS011;37799;52.390;6.136;2022-07-09T06:24:12;3.78;;;0.80;;
37201;SDS011;37799;52.390;6.136;2022-07-09T06:26:37;2.80;;;0.80;;
37201;SDS011;37799;52.390;6.136;2022-07-09T06:29:02;3.13;;;0.70;;
37201;SDS011;37799;52.390;6.136;2022-07-09T06:31:28;4.25;;;0.90;;
37201;SDS011;37799;52.390;6.136;2022-07-09T06:33:54;4.50;;;0.90;;
37201;SDS011;37799;52.390;6.136;2022-07-09T06:36:19;3.03;;;0.70;;
37201;SDS011;37799;52.390;6.136;2022-07-09T06:38:44;4.53;;;1.27;;
37201;SDS011;37799;52.390;6.136;2022-07-09T06:41:28;3.95;;;0.50;;
37201;SDS011;37799;52.390;6.136;2022-07-09T06:43:53;3.20;;;0.60;;
37201;SDS011;37799;52.390;6.136;2022-07-09T06:46:18;3.10;;;0.70;;
37201;SDS011;37799;52.390;6.136;2022-07-09T06:48:44;2.85;;;0.47;;
37201;SDS011;37799;52.390;6.136;2022-07-09T06:51:09;2.85;;;0.50;;
37201;SDS011;37799;52.390;6.136;2022-07-09T06:53:35;2.85;;;0.63;;
37201;SDS011;37799;52.390;6.136;2022-07-09T06:56:00;2.78;;;0.43;;
37201;SDS011;37799;52.390;6.136;2022-07-09T06:58:26;0.57;;;0.10;;
37201;SDS011;37799;52.390;6.136;2022-07-09T07:00:51;2.30;;;0.40;;
37201;SDS011;37799;52.390;6.136;2022-07-09T07:03:16;2.40;;;0.30;;
37201;SDS011;37799;52.390;6.136;2022-07-09T07:05:41;2.20;;;0.30;;
37201;SDS011;37799;52.390;6.136;2022-07-09T07:08:07;1.93;;;0.30;;
37201;SDS011;37799;52.390;6.136;2022-07-09T07:10:32;1.40;;;0.30;;
37201;SDS011;37799;52.390;6.136;2022-07-09T07:12:57;1.63;;;0.30;;
37201;SDS011;37799;52.390;6.136;2022-07-09T07:15:23;1.57;;;0.50;;
37201;SDS011;37799;52.390;6.136;2022-07-09T07:17:48;0.73;;;0.20;;
37201;SDS011;37799;52.390;6.136;2022-07-09T07:20:14;1.17;;;0.20;;
37201;SDS011;37799;52.390;6.136;2022-07-09T07:22:39;4.00;;;0.43;;
37201;SDS011;37799;52.390;6.136;2022-07-09T07:25:05;0.60;;;0.10;;
37201;SDS011;37799;52.390;6.136;2022-07-09T07:27:31;0.20;;;0.10;;
37201;SDS011;37799;52.390;6.136;2022-07-09T07:29:56;1.30;;;0.30;;
37201;SDS011;37799;52.390;6.136;2022-07-09T07:32:21;1.13;;;0.20;;
37201;SDS011;37799;52.390;6.136;2022-07-09T07:34:47;1.20;;;0.20;;
37201;SDS011;37799;52.390;6.136;2022-07-09T07:37:12;1.17;;;0.20;;
37201;SDS011;37799;52.390;6.136;2022-07-09T07:39:37;1.17;;;0.30;;
37201;SDS011;37799;52.390;6.136;2022-07-09T07:42:02;2.73;;;0.40;;
37201;SDS011;37799;52.390;6.136;2022-07-09T07:44:28;1.13;;;0.20;;
37201;SDS011;37799;52.390;6.136;2022-07-09T07:46:54;0.82;;;0.20;;
37201;SDS011;37799;52.390;6.136;2022-07-09T07:49:19;3.00;;;0.47;;
37201;SDS011;37799;52.390;6.136;2022-07-09T07:51:44;0.85;;;0.20;;
37201;SDS011;37799;52.390;6.136;2022-07-09T07:54:10;1.00;;;0.20;;
37201;SDS011;37799;52.390;6.136;2022-07-09T07:56:35;1.20;;;0.20;;
37201;SDS011;37799;52.390;6.136;2022-07-09T07:59:03;1.08;;;0.17;;
37201;SDS011;37799;52.390;6.136;2022-07-09T08:01:28;0.65;;;0.20;;
37201;SDS011;37799;52.390;6.136;2022-07-09T08:03:54;0.90;;;0.20;;
37201;SDS011;37799;52.390;6.136;2022-07-09T08:06:19;0.60;;;0.20;;
37201;SDS011;37799;52.390;6.136;2022-07-09T08:08:47;0.93;;;0.20;;
37201;SDS011;37799;52.390;6.136;2022-07-09T08:11:12;1.30;;;0.30;;
37201;SDS011;37799;52.390;6.136;2022-07-09T08:13:37;6.07;;;0.50;;
37201;SDS011;37799;52.390;6.136;2022-07-09T08:16:04;0.95;;;0.30;;
37201;SDS011;37799;52.390;6.136;2022-07-09T08:18:30;1.08;;;0.20;;
37201;SDS011;37799;52.390;6.136;2022-07-09T08:20:55;1.90;;;0.30;;
37201;SDS011;37799;52.390;6.136;2022-07-09T08:23:20;1.70;;;0.40;;
37201;SDS011;37799;52.390;6.136;2022-07-09T08:25:46;1.77;;;0.50;;
37201;SDS011;37799;52.390;6.136;2022-07-09T08:28:12;1.33;;;0.28;;
37201;SDS011;37799;52.390;6.136;2022-07-09T08:30:38;1.40;;;0.30;;
37201;SDS011;37799;52.390;6.136;2022-07-09T08:33:03;2.30;;;0.60;;
37201;SDS011;37799;52.390;6.136;2022-07-09T08:35:28;1.50;;;0.40;;
37201;SDS011;37799;52.390;6.136;2022-07-09T08:37:53;2.20;;;0.40;;
37201;SDS011;37799;52.390;6.136;2022-07-09T08:40:19;2.00;;;0.38;;
37201;SDS011;37799;52.390;6.136;2022-07-09T08:42:45;1.88;;;0.32;;
37201;SDS011;37799;52.390;6.136;2022-07-09T08:45:11;1.48;;;0.40;;
37201;SDS011;37799;52.390;6.136;2022-07-09T08:47:41;1.83;;;0.32;;
37201;SDS011;37799;52.390;6.136;2022-07-09T08:50:07;1.23;;;0.40;;
37201;SDS011;37799;52.390;6.136;2022-07-09T08:52:33;2.53;;;0.30;;
37201;SDS011;37799;52.390;6.136;2022-07-09T08:55:01;1.80;;;0.30;;
37201;SDS011;37799;52.390;6.136;2022-07-09T08:57:26;0.50;;;0.17;;
37201;SDS011;37799;52.390;6.136;2022-07-09T08:59:52;1.73;;;0.37;;
37201;SDS011;37799;52.390;6.136;2022-07-09T09:02:17;1.55;;;0.30;;
37201;SDS011;37799;52.390;6.136;2022-07-09T09:04:45;1.45;;;0.43;;
37201;SDS011;37799;52.390;6.136;2022-07-09T09:07:17;3.20;;;0.40;;
37201;SDS011;37799;52.390;6.136;2022-07-09T09:09:44;0.90;;;0.30;;
37201;SDS011;37799;52.390;6.136;2022-07-09T09:12:10;1.50;;;0.22;;
37201;SDS011;37799;52.390;6.136;2022-07-09T09:14:37;0.80;;;0.20;;
37201;SDS011;37799;52.390;6.136;2022-07-09T09:17:05;1.58;;;0.20;;
37201;SDS011;37799;52.390;6.136;2022-07-09T09:19:34;1.33;;;0.38;;
37201;SDS011;37799;52.390;6.136;2022-07-09T09:21:59;1.45;;;0.20;;
37201;SDS011;37799;52.390;6.136;2022-07-09T09:24:25;3.97;;;0.60;;
37201;SDS011;37799;52.390;6.136;2022-07-09T09:26:55;1.05;;;0.20;;
37201;SDS011;37799;52.390;6.136;2022-07-09T09:29:21;3.13;;;0.30;;
37201;SDS011;37799;52.390;6.136;2022-07-09T09:31:46;0.70;;;0.20;;
37201;SDS011;37799;52.390;6.136;2022-07-09T09:34:14;0.70;;;0.10;;
37201;SDS011;37799;52.390;6.136;2022-07-09T09:36:47;1.40;;;0.28;;
37201;SDS011;37799;52.390;6.136;2022-07-09T09:41:59;1.15;;;0.30;;
37201;SDS011;37799;52.390;6.136;2022-07-09T09:44:28;1.63;;;0.30;;
37201;SDS011;37799;52.390;6.136;2022-07-09T09:46:56;0.38;;;0.17;;
37201;SDS011;37799;52.390;6.136;2022-07-09T09:49:22;1.13;;;0.20;;
37201;SDS011;37799;52.390;6.136;2022-07-09T09:54:33;1.23;;;0.20;;
37201;SDS011;37799;52.390;6.136;2022-07-09T09:57:02;1.63;;;0.10;;
37201;SDS011;37799;52.390;6.136;2022-07-09T09:59:31;0.45;;;0.10;;
37201;SDS011;37799;52.390;6.136;2022-07-09T10:02:05;0.50;;;0.10;;
37201;SDS011;37799;52.390;6.136;2022-07-09T10:04:35;2.17;;;0.20;;
37201;SDS011;37799;52.390;6.136;2022-07-09T10:07:01;1.13;;;0.25;;
37201;SDS011;37799;52.390;6.136;2022-07-09T10:09:26;0.68;;;0.25;;
37201;SDS011;37799;52.390;6.136;2022-07-09T10:11:52;2.17;;;0.13;;
37201;SDS011;37799;52.390;6.136;2022-07-09T10:14:28;0.88;;;0.20;;
37201;SDS011;37799;52.390;6.136;2022-07-09T10:16:54;0.82;;;0.10;;
37201;SDS011;37799;52.390;6.136;2022-07-09T10:19:29;2.40;;;0.30;;
37201;SDS011;37799;52.390;6.136;2022-07-09T10:21:56;1.05;;;0.20;;
37201;SDS011;37799;52.390;6.136;2022-07-09T10:24:26;1.00;;;0.10;;
37201;SDS011;37799;52.390;6.136;2022-07-09T10:27:01;0.35;;;0.08;;
37201;SDS011;37799;52.390;6.136;2022-07-09T10:29:31;0.45;;;0.10;;
37201;SDS011;37799;52.390;6.136;2022-07-09T10:31:57;1.58;;;0.15;;
37201;SDS011;37799;52.390;6.136;2022-07-09T10:36:57;2.30;;;0.15;;
37201;SDS011;37799;52.390;6.136;2022-07-09T10:39:23;1.35;;;0.10;;
37201;SDS011;37799;52.390;6.136;2022-07-09T10:41:58;0.23;;;0.00;;
37201;SDS011;37799;52.390;6.136;2022-07-09T10:44:28;1.00;;;0.20;;
37201;SDS011;37799;52.390;6.136;2022-07-09T10:46:57;0.70;;;0.10;;
37201;SDS011;37799;52.390;6.136;2022-07-09T10:49:23;0.30;;;0.00;;
37201;SDS011;37799;52.390;6.136;2022-07-09T10:51:54;0.70;;;0.10;;
37201;SDS011;37799;52.390;6.136;2022-07-09T10:54:20;3.42;;;0.20;;
37201;SDS011;37799;52.390;6.136;2022-07-09T10:56:46;0.53;;;0.10;;
37201;SDS011;37799;52.390;6.136;2022-07-09T10:59:15;0.20;;;0.00;;
37201;SDS011;37799;52.390;6.136;2022-07-09T11:01:41;1.57;;;0.20;;
37201;SDS011;37799;52.390;6.136;2022-07-09T11:04:07;1.50;;;0.33;;
37201;SDS011;37799;52.390;6.136;2022-07-09T11:06:33;0.93;;;0.10;;
37201;SDS011;37799;52.390;6.136;2022-07-09T11:09:15;0.63;;;0.10;;
37201;SDS011;37799;52.390;6.136;2022-07-09T11:11:41;1.70;;;0.20;;
37201;SDS011;37799;52.390;6.136;2022-07-09T11:14:08;1.85;;;0.10;;
37201;SDS011;37799;52.390;6.136;2022-07-09T11:16:34;0.28;;;0.10;;
37201;SDS011;37799;52.390;6.136;2022-07-09T11:18:59;0.50;;;0.10;;
37201;SDS011;37799;52.390;6.136;2022-07-09T11:21:25;2.80;;;0.33;;
37201;SDS011;37799;52.390;6.136;2022-07-09T11:23:51;0.77;;;0.10;;
37201;SDS011;37799;52.390;6.136;2022-07-09T11:26:16;0.98;;;0.20;;
37201;SDS011;37799;52.390;6.136;2022-07-09T11:28:42;1.40;;;0.10;;
37201;SDS011;37799;52.390;6.136;2022-07-09T11:31:09;1.65;;;0.22;;
37201;SDS011;37799;52.390;6.136;2022-07-09T11:33:34;1.30;;;0.10;;
37201;SDS011;37799;52.390;6.136;2022-07-09T11:36:20;0.68;;;0.05;;
37201;SDS011;37799;52.390;6.136;2022-07-09T11:38:49;0.60;;;0.20;;
37201;SDS011;37799;52.390;6.136;2022-07-09T11:41:15;0.22;;;0.08;;
37201;SDS011;37799;52.390;6.136;2022-07-09T11:43:47;0.47;;;0.10;;
37201;SDS011;37799;52.390;6.136;2022-07-09T11:46:15;0.63;;;0.10;;
37201;SDS011;37799;52.390;6.136;2022-07-09T11:48:50;1.80;;;0.10;;
37201;SDS011;37799;52.390;6.136;2022-07-09T11:51:27;1.13;;;0.10;;
37201;SDS011;37799;52.390;6.136;2022-07-09T11:53:53;0.25;;;0.05;;
37201;SDS011;37799;52.390;6.136;2022-07-09T11:56:18;0.30;;;0.10;;
37201;SDS011;37799;52.390;6.136;2022-07-09T11:58:50;0.30;;;0.00;;
37201;SDS011;37799;52.390;6.136;2022-07-09T12:01:16;0.85;;;0.03;;
37201;SDS011;37799;52.390;6.136;2022-07-09T12:03:48;0.35;;;0.08;;
37201;SDS011;37799;52.390;6.136;2022-07-09T12:06:14;0.57;;;0.10;;
37201;SDS011;37799;52.390;6.136;2022-07-09T12:08:40;0.82;;;0.13;;
37201;SDS011;37799;52.390;6.136;2022-07-09T12:11:06;0.80;;;0.10;;
37201;SDS011;37799;52.390;6.136;2022-07-09T12:13:31;0.80;;;0.10;;
37201;SDS011;37799;52.390;6.136;2022-07-09T12:15:56;1.92;;;0.13;;
37201;SDS011;37799;52.390;6.136;2022-07-09T12:18:22;2.10;;;0.17;;
37201;SDS011;37799;52.390;6.136;2022-07-09T12:20:47;3.30;;;0.15;;
37201;SDS011;37799;52.390;6.136;2022-07-09T12:23:12;0.40;;;0.10;;
37201;SDS011;37799;52.390;6.136;2022-07-09T12:25:38;1.33;;;0.13;;
37201;SDS011;37799;52.390;6.136;2022-07-09T12:28:04;1.00;;;0.17;;
37201;SDS011;37799;52.390;6.136;2022-07-09T12:30:29;0.10;;;0.00;;
37201;SDS011;37799;52.390;6.136;2022-07-09T12:32:55;0.20;;;0.00;;
37201;SDS011;37799;52.390;6.136;2022-07-09T12:35:23;1.83;;;0.10;;
37201;SDS011;37799;52.390;6.136;2022-07-09T12:37:49;1.33;;;0.05;;
37201;SDS011;37799;52.390;6.136;2022-07-09T12:40:15;2.33;;;0.15;;
37201;SDS011;37799;52.390;6.136;2022-07-09T12:42:40;0.63;;;0.10;;
37201;SDS011;37799;52.390;6.136;2022-07-09T12:45:05;0.65;;;0.00;;
37201;SDS011;37799;52.390;6.136;2022-07-09T12:47:31;0.65;;;0.05;;
37201;SDS011;37799;52.390;6.136;2022-07-09T12:49:56;0.73;;;0.10;;
37201;SDS011;37799;52.390;6.136;2022-07-09T12:52:22;0.57;;;0.10;;
37201;SDS011;37799;52.390;6.136;2022-07-09T12:54:47;0.30;;;0.08;;
37201;SDS011;37799;52.390;6.136;2022-07-09T12:57:13;0.13;;;0.03;;
37201;SDS011;37799;52.390;6.136;2022-07-09T12:59:38;1.25;;;0.13;;
37201;SDS011;37799;52.390;6.136;2022-07-09T13:02:04;3.50;;;0.25;;
37201;SDS011;37799;52.390;6.136;2022-07-09T13:04:30;1.45;;;0.15;;
37201;SDS011;37799;52.390;6.136;2022-07-09T13:06:55;2.22;;;0.13;;
37201;SDS011;37799;52.390;6.136;2022-07-09T13:09:21;2.70;;;0.20;;
37201;SDS011;37799;52.390;6.136;2022-07-09T13:11:46;0.90;;;0.20;;
37201;SDS011;37799;52.390;6.136;2022-07-09T13:14:13;2.42;;;0.30;;
37201;SDS011;37799;52.390;6.136;2022-07-09T13:16:38;0.85;;;0.20;;
37201;SDS011;37799;52.390;6.136;2022-07-09T13:19:04;0.77;;;0.20;;
37201;SDS011;37799;52.390;6.136;2022-07-09T13:21:29;1.02;;;0.10;;
37201;SDS011;37799;52.390;6.136;2022-07-09T13:23:55;1.67;;;0.20;;
37201;SDS011;37799;52.390;6.136;2022-07-09T13:26:20;1.98;;;0.30;;
37201;SDS011;37799;52.390;6.136;2022-07-09T13:28:46;1.77;;;0.30;;
37201;SDS011;37799;52.390;6.136;2022-07-09T13:31:11;1.75;;;0.20;;
37201;SDS011;37799;52.390;6.136;2022-07-09T13:33:36;2.27;;;0.33;;
37201;SDS011;37799;52.390;6.136;2022-07-09T13:36:03;3.33;;;0.17;;
37201;SDS011;37799;52.390;6.136;2022-07-09T13:38:29;1.55;;;0.20;;
37201;SDS011;37799;52.390;6.136;2022-07-09T13:40:55;1.48;;;0.20;;
37201;SDS011;37799;52.390;6.136;2022-07-09T13:43:20;0.73;;;0.10;;
37201;SDS011;37799;52.390;6.136;2022-07-09T13:45:46;4.45;;;0.22;;
37201;SDS011;37799;52.390;6.136;2022-07-09T13:48:11;0.88;;;0.10;;
37201;SDS011;37799;52.390;6.136;2022-07-09T13:50:37;1.48;;;0.20;;
37201;SDS011;37799;52.390;6.136;2022-07-09T13:53:03;2.70;;;0.37;;
37201;SDS011;37799;52.390;6.136;2022-07-09T13:55:31;0.50;;;0.00;;
37201;SDS011;37799;52.390;6.136;2022-07-09T13:57:57;0.80;;;0.20;;
37201;SDS011;37799;52.390;6.136;2022-07-09T14:00:22;1.85;;;0.10;;
37201;SDS011;37799;52.390;6.136;2022-07-09T14:02:48;3.65;;;0.17;;
37201;SDS011;37799;52.390;6.136;2022-07-09T14:05:14;1.90;;;0.10;;
37201;SDS011;37799;52.390;6.136;2022-07-09T14:07:39;0.70;;;0.13;;
37201;SDS011;37799;52.390;6.136;2022-07-09T14:10:05;1.30;;;0.10;;
37201;SDS011;37799;52.390;6.136;2022-07-09T14:12:31;1.75;;;0.35;;
37201;SDS011;37799;52.390;6.136;2022-07-09T14:14:56;1.60;;;0.20;;
37201;SDS011;37799;52.390;6.136;2022-07-09T14:17:23;1.48;;;0.10;;
37201;SDS011;37799;52.390;6.136;2022-07-09T14:19:49;1.27;;;0.10;;
37201;SDS011;37799;52.390;6.136;2022-07-09T14:22:14;2.67;;;0.55;;
37201;SDS011;37799;52.390;6.136;2022-07-09T14:24:40;1.13;;;0.38;;
37201;SDS011;37799;52.390;6.136;2022-07-09T14:27:05;1.23;;;0.13;;
37201;SDS011;37799;52.390;6.136;2022-07-09T14:29:30;1.23;;;0.30;;
37201;SDS011;37799;52.390;6.136;2022-07-09T14:31:55;0.40;;;0.10;;
37201;SDS011;37799;52.390;6.136;2022-07-09T14:34:21;2.10;;;0.20;;
37201;SDS011;37799;52.390;6.136;2022-07-09T14:36:48;0.57;;;0.10;;
37201;SDS011;37799;52.390;6.136;2022-07-09T14:39:15;0.20;;;0.08;;
37201;SDS011;37799;52.390;6.136;2022-07-09T14:41:40;0.75;;;0.20;;
37201;SDS011;37799;52.390;6.136;2022-07-09T14:44:06;1.58;;;0.10;;
37201;SDS011;37799;52.390;6.136;2022-07-09T14:46:31;3.33;;;0.38;;
37201;SDS011;37799;52.390;6.136;2022-07-09T14:48:57;1.08;;;0.20;;